createdAt,value
2023-04-16T00:00:38.353Z,100.00
2023-04-16T00:03:43.082Z,100.00
2023-04-16T00:06:47.872Z,100.00
2023-04-16T00:09:52.509Z,100.00
2023-04-16T00:12:57.008Z,100.00
2023-04-16T00:16:01.659Z,100.00
2023-04-16T00:19:06.244Z,100.00
2023-04-16T00:22:10.942Z,100.00
2023-04-16T00:25:15.786Z,100.00
2023-04-16T00:28:20.399Z,100.00
2023-04-16T00:31:29.881Z,100.00
2023-04-16T00:34:34.509Z,100.00
2023-04-16T00:37:39.105Z,100.00
2023-04-16T00:40:43.703Z,100.00
2023-04-16T00:43:48.629Z,100.00
2023-04-16T00:46:53.872Z,100.00
2023-04-16T00:49:58.729Z,100.00
2023-04-16T00:53:04.009Z,100.00
2023-04-16T00:56:09.852Z,100.00
2023-04-16T00:59:14.811Z,100.00
2023-04-16T01:02:19.786Z,100.00
2023-04-16T01:05:24.438Z,100.00
2023-04-16T01:08:29.047Z,100.00
2023-04-16T01:11:33.700Z,100.00
2023-04-16T01:14:38.456Z,100.00
2023-04-16T01:17:46.100Z,100.00
2023-04-16T01:20:51.287Z,100.00
2023-04-16T01:23:56.076Z,100.00
2023-04-16T01:27:00.956Z,100.00
2023-04-16T01:30:06.539Z,100.00
2023-04-16T01:33:22.730Z,100.00
2023-04-16T01:36:27.368Z,100.00
2023-04-16T01:39:32.861Z,100.00
2023-04-16T01:42:38.534Z,100.00
2023-04-16T01:45:43.159Z,100.00
2023-04-16T01:48:49.708Z,100.00
2023-04-16T01:51:54.361Z,100.00
2023-04-16T01:54:58.952Z,100.00
2023-04-16T01:58:03.669Z,100.00
2023-04-16T02:01:11.944Z,100.00
2023-04-16T02:04:17.554Z,100.00
2023-04-16T02:07:22.357Z,100.00
2023-04-16T02:10:27.070Z,100.00
2023-04-16T02:13:32.368Z,100.00
2023-04-16T02:16:37.071Z,100.00
2023-04-16T02:20:18.092Z,100.00
2023-04-16T02:23:31.005Z,100.00
2023-04-16T02:26:36.870Z,100.00
2023-04-16T02:29:46.610Z,100.00
2023-04-16T02:32:54.744Z,100.00
2023-04-16T02:36:00.054Z,100.00
2023-04-16T02:39:04.749Z,100.00
2023-04-16T02:42:09.331Z,100.00
2023-04-16T02:45:14.517Z,100.00
2023-04-16T02:48:19.158Z,100.00
2023-04-16T02:51:23.697Z,100.00
2023-04-16T02:54:28.480Z,100.00
2023-04-16T02:57:33.379Z,100.00
2023-04-16T03:00:38.438Z,100.00
2023-04-16T03:03:43.274Z,100.00
2023-04-16T03:06:47.883Z,100.00
2023-04-16T03:09:52.454Z,100.00
2023-04-16T03:12:57.161Z,100.00
2023-04-16T03:16:02.441Z,100.00
2023-04-16T03:19:07.268Z,100.00
2023-04-16T03:22:11.988Z,100.00
2023-04-16T03:25:16.759Z,100.00
2023-04-16T03:28:21.305Z,100.00
2023-04-16T03:31:26.430Z,100.00
2023-04-16T03:34:33.399Z,100.00
2023-04-16T03:37:38.184Z,100.00
2023-04-16T03:40:43.052Z,100.00
2023-04-16T03:43:47.651Z,100.00
2023-04-16T03:46:53.816Z,100.00
2023-04-16T03:49:59.363Z,100.00
2023-04-16T03:53:05.711Z,100.00
2023-04-16T03:56:11.058Z,100.00
2023-04-16T03:59:15.605Z,100.00
2023-04-16T04:02:22.140Z,100.00
2023-04-16T04:05:27.274Z,100.00
2023-04-16T04:08:31.874Z,100.00
2023-04-16T04:11:36.622Z,100.00
2023-04-16T04:14:41.495Z,100.00
2023-04-16T04:17:46.344Z,100.00
2023-04-16T04:20:51.656Z,100.00
2023-04-16T04:23:58.847Z,100.00
2023-04-16T04:27:03.712Z,100.00
2023-04-16T04:30:09.702Z,100.00
2023-04-16T04:33:14.603Z,100.00
2023-04-16T04:36:20.114Z,100.00
2023-04-16T04:39:25.666Z,100.00
2023-04-16T04:42:30.349Z,100.00
2023-04-16T04:45:35.024Z,100.00
2023-04-16T04:48:40.002Z,100.00
2023-04-16T04:51:44.616Z,100.00
2023-04-16T04:54:49.277Z,100.00
2023-04-16T04:57:53.920Z,100.00
2023-04-16T05:00:58.605Z,100.00
2023-04-16T05:04:03.254Z,100.00
2023-04-16T05:07:08.016Z,100.00
2023-04-16T05:10:12.573Z,100.00
2023-04-16T05:13:17.151Z,100.00
2023-04-16T05:16:21.875Z,100.00
2023-04-16T05:19:26.426Z,100.00
2023-04-16T05:22:31.049Z,100.00
2023-04-16T05:25:35.692Z,100.00
2023-04-16T05:28:40.365Z,100.00
2023-04-16T05:31:45.216Z,100.00
2023-04-16T05:34:49.758Z,100.00
2023-04-16T05:37:54.557Z,100.00
2023-04-16T05:40:59.332Z,100.00
2023-04-16T05:44:04.178Z,100.00
2023-04-16T05:47:09.631Z,100.00
2023-04-16T05:50:14.298Z,100.00
2023-04-16T05:53:19.024Z,100.00
2023-04-16T05:56:23.740Z,100.00
2023-04-16T05:59:29.231Z,100.00
2023-04-16T06:02:33.975Z,100.00
2023-04-16T06:05:38.854Z,100.00
2023-04-16T06:08:43.576Z,100.00
2023-04-16T06:11:48.866Z,100.00
2023-04-16T06:14:53.400Z,100.00
2023-04-16T06:18:00.196Z,100.00
2023-04-16T06:21:05.855Z,100.00
2023-04-16T06:24:10.574Z,100.00
2023-04-16T06:27:15.127Z,100.00
2023-04-16T06:30:20.066Z,100.00
2023-04-16T06:33:24.657Z,100.00
2023-04-16T06:36:29.304Z,100.00
2023-04-16T06:39:33.899Z,100.00
2023-04-16T06:42:38.457Z,100.00
2023-04-16T06:45:43.066Z,100.00
2023-04-16T06:48:47.834Z,100.00
2023-04-16T06:51:52.536Z,100.00
2023-04-16T06:54:57.119Z,100.00
2023-04-16T06:58:01.677Z,100.00
2023-04-16T07:01:06.630Z,100.00
2023-04-16T07:04:12.253Z,100.00
2023-04-16T07:07:16.805Z,100.00
2023-04-16T07:10:21.515Z,100.00
2023-04-16T07:13:26.191Z,100.00
2023-04-16T07:16:30.907Z,100.00
2023-04-16T07:19:35.900Z,100.00
2023-04-16T07:22:40.556Z,100.00
2023-04-16T07:25:46.008Z,100.00
2023-04-16T07:28:50.814Z,100.00
2023-04-16T07:31:55.547Z,100.00
2023-04-16T07:35:00.729Z,100.00
2023-04-16T07:38:05.946Z,100.00
2023-04-16T07:41:10.856Z,100.00
2023-04-16T07:44:15.736Z,100.00
2023-04-16T07:47:20.537Z,100.00
2023-04-16T07:50:25.373Z,100.00
2023-04-16T07:53:30.246Z,100.00
2023-04-16T07:56:34.863Z,100.00
2023-04-16T07:59:39.387Z,100.00
2023-04-16T08:02:44.537Z,100.00
2023-04-16T08:05:49.337Z,100.00
2023-04-16T08:08:53.913Z,100.00
2023-04-16T08:12:00.762Z,100.00
2023-04-16T08:15:06.375Z,100.00
2023-04-16T08:18:15.480Z,100.00
2023-04-16T08:21:20.074Z,100.00
2023-04-16T08:24:24.707Z,100.00
2023-04-16T08:27:29.271Z,100.00
2023-04-16T08:30:34.004Z,100.00
2023-04-16T08:33:40.275Z,100.00
2023-04-16T08:36:46.032Z,100.00
2023-04-16T08:39:50.711Z,100.00
2023-04-16T08:42:58.860Z,100.00
2023-04-16T08:46:05.734Z,100.00
2023-04-16T08:49:17.969Z,100.00
2023-04-16T08:52:24.374Z,100.00
2023-04-16T08:55:47.138Z,99.83
2023-04-16T08:58:54.739Z,92.97
2023-04-16T09:02:00.712Z,92.02
2023-04-16T09:05:07.507Z,85.59
2023-04-16T09:08:12.663Z,82.63
2023-04-16T09:11:20.516Z,77.39
2023-04-16T09:14:25.314Z,83.22
2023-04-16T09:17:29.902Z,97.35
2023-04-16T09:20:34.710Z,93.92
2023-04-16T09:23:40.127Z,94.58
2023-04-16T09:26:45.096Z,99.89
2023-04-16T09:29:49.694Z,100.00
2023-04-16T09:33:22.637Z,100.00
2023-04-16T09:36:28.115Z,100.00
2023-04-16T09:39:32.980Z,100.00
2023-04-16T09:42:37.783Z,100.00
2023-04-16T09:45:53.408Z,100.00
2023-04-16T09:48:58.450Z,93.35
2023-04-16T09:52:03.317Z,84.40
2023-04-16T09:55:08.105Z,88.63
2023-04-16T09:58:12.717Z,89.07
2023-04-16T10:01:18.357Z,84.36
2023-04-16T10:04:23.076Z,79.99
2023-04-16T10:07:35.424Z,87.17
2023-04-16T10:10:40.498Z,95.70
2023-04-16T10:13:45.457Z,86.63
2023-04-16T10:16:51.063Z,94.62
2023-04-16T10:19:57.246Z,75.43
2023-04-16T10:23:02.270Z,77.83
2023-04-16T10:26:07.093Z,72.04
2023-04-16T10:29:13.525Z,76.19
2023-04-16T10:32:20.799Z,79.91
2023-04-16T10:35:26.104Z,80.53
2023-04-16T10:38:30.802Z,85.72
2023-04-16T10:41:37.131Z,85.89
2023-04-16T10:44:45.043Z,87.46
2023-04-16T10:47:50.315Z,91.07
2023-04-16T10:50:57.289Z,89.01
2023-04-16T10:54:20.839Z,82.46
2023-04-16T10:57:29.174Z,80.46
2023-04-16T11:00:49.296Z,80.62
2023-04-16T11:03:54.074Z,82.34
2023-04-16T11:07:14.063Z,77.58
2023-04-16T11:23:50.488Z,54.96
2023-04-16T11:36:42.370Z,54.52
2023-04-16T11:45:19.199Z,48.33
2023-04-16T11:53:33.955Z,59.19
2023-04-16T11:56:38.715Z,68.95
2023-04-16T12:00:02.229Z,65.23
2023-04-16T12:03:17.233Z,84.59
2023-04-16T12:29:21.918Z,48.98
2023-04-16T12:39:42.005Z,65.86
2023-04-16T12:42:46.670Z,69.67
2023-04-16T12:45:51.305Z,75.31
2023-04-16T12:48:57.545Z,77.00
2023-04-16T12:52:02.986Z,76.04
2023-04-16T12:55:07.753Z,71.51
2023-04-16T12:58:12.694Z,73.21
2023-04-16T13:01:19.209Z,74.25
2023-04-16T13:04:25.681Z,73.32
2023-04-16T13:07:32.194Z,72.05
2023-04-16T13:10:36.720Z,71.04
2023-04-16T13:13:41.257Z,69.97
2023-04-16T13:16:45.775Z,73.07
2023-04-16T13:19:50.333Z,64.62
2023-04-16T13:22:54.895Z,64.61
2023-04-16T13:25:59.382Z,60.15
2023-04-16T13:29:07.106Z,59.46
2023-04-16T13:32:13.801Z,61.38
2023-04-16T13:35:18.366Z,53.79
2023-04-16T13:38:22.932Z,54.59
2023-04-16T13:41:27.678Z,54.09
2023-04-16T13:44:32.351Z,54.08
2023-04-16T13:47:37.844Z,58.99
2023-04-16T13:50:42.350Z,57.42
2023-04-16T13:53:46.938Z,58.27
2023-04-16T13:56:51.535Z,61.28
2023-04-16T13:59:56.326Z,62.01
2023-04-16T14:03:00.996Z,62.66
2023-04-16T14:06:05.718Z,63.34
2023-04-16T14:09:12.236Z,61.63
2023-04-16T14:12:16.883Z,63.88
2023-04-16T14:15:21.489Z,74.93
2023-04-16T14:18:25.990Z,97.33
2023-04-16T14:21:31.311Z,100.00
2023-04-16T14:24:35.840Z,100.00
2023-04-16T14:27:41.214Z,100.00
2023-04-16T14:30:45.747Z,100.00
2023-04-16T14:33:50.380Z,100.00
2023-04-16T14:36:54.961Z,100.00
2023-04-16T14:40:00.003Z,100.00
2023-04-16T14:43:04.621Z,100.00
2023-04-16T14:46:09.279Z,100.00
2023-04-16T14:49:14.686Z,100.00
2023-04-16T14:52:19.389Z,100.00
2023-04-16T14:55:23.928Z,100.00
2023-04-16T14:58:28.373Z,100.00
2023-04-16T15:01:34.465Z,100.00
2023-04-16T15:04:39.046Z,100.00
2023-04-16T15:07:43.590Z,100.00
2023-04-16T15:10:48.021Z,100.00
2023-04-16T15:13:52.470Z,100.00
2023-04-16T15:16:57.043Z,100.00
2023-04-16T15:20:01.598Z,100.00
2023-04-16T15:23:06.109Z,100.00
2023-04-16T15:26:10.650Z,100.00
2023-04-16T15:29:15.818Z,100.00
2023-04-16T15:32:20.320Z,100.00
2023-04-16T15:35:24.852Z,100.00
2023-04-16T15:38:30.845Z,100.00
2023-04-16T15:41:46.978Z,100.00
2023-04-16T15:45:01.930Z,100.00
2023-04-16T15:48:06.537Z,100.00
2023-04-16T15:51:11.357Z,100.00
2023-04-16T15:54:15.902Z,100.00
2023-04-16T15:57:20.464Z,100.00
2023-04-16T16:00:25.036Z,96.78
2023-04-16T16:03:29.841Z,100.00
2023-04-16T16:06:37.858Z,100.00
2023-04-16T16:09:42.674Z,100.00
2023-04-16T16:12:48.038Z,100.00
2023-04-16T16:15:52.528Z,100.00
2023-04-16T16:18:57.045Z,100.00
2023-04-16T16:22:01.554Z,100.00
2023-04-16T16:25:07.437Z,100.00
2023-04-16T16:28:11.928Z,100.00
2023-04-16T16:31:16.518Z,100.00
2023-04-16T16:34:23.149Z,100.00
2023-04-16T16:37:28.992Z,100.00
2023-04-16T16:40:33.492Z,100.00
2023-04-16T16:43:38.022Z,100.00
2023-04-16T16:46:42.988Z,100.00
2023-04-16T16:49:48.372Z,100.00
2023-04-16T16:52:58.628Z,100.00
2023-04-16T16:56:03.162Z,100.00
2023-04-16T16:59:08.928Z,100.00
2023-04-16T17:02:15.055Z,100.00
2023-04-16T17:05:21.002Z,100.00
2023-04-16T17:08:26.898Z,100.00
2023-04-16T17:11:31.410Z,100.00
2023-04-16T17:14:36.023Z,100.00
2023-04-16T17:17:40.540Z,100.00
2023-04-16T17:22:33.618Z,100.00
2023-04-16T17:27:19.077Z,100.00
2023-04-16T17:30:25.806Z,100.00
2023-04-16T17:33:30.333Z,100.00
2023-04-16T17:36:36.943Z,100.00
2023-04-16T17:39:41.364Z,100.00
2023-04-16T17:42:46.109Z,100.00
2023-04-16T17:45:50.606Z,100.00
2023-04-16T17:48:55.254Z,100.00
2023-04-16T17:51:59.687Z,100.00
2023-04-16T17:55:05.802Z,100.00
2023-04-16T17:58:10.216Z,100.00
2023-04-16T18:01:14.764Z,100.00
2023-04-16T18:04:19.645Z,100.00
2023-04-16T18:07:24.404Z,100.00
2023-04-16T18:10:31.456Z,100.00
2023-04-16T18:13:36.161Z,100.00
2023-04-16T18:16:41.758Z,100.00
2023-04-16T18:19:46.234Z,100.00
2023-04-16T18:22:50.798Z,100.00
2023-04-16T18:25:55.211Z,100.00
2023-04-16T18:29:00.353Z,100.00
2023-04-16T18:32:05.816Z,100.00
2023-04-16T18:35:10.851Z,100.00
2023-04-16T18:38:16.214Z,100.00
2023-04-16T18:41:21.315Z,100.00
2023-04-16T18:44:26.287Z,100.00
2023-04-16T18:47:31.059Z,100.00
2023-04-16T18:50:35.752Z,100.00
2023-04-16T18:53:42.188Z,100.00
2023-04-16T18:56:46.771Z,100.00
2023-04-16T18:59:51.306Z,100.00
2023-04-16T19:02:55.897Z,100.00
2023-04-16T19:06:00.332Z,100.00
2023-04-16T19:09:06.480Z,100.00
2023-04-16T19:12:11.181Z,100.00
2023-04-16T19:15:15.949Z,100.00
2023-04-16T19:18:20.535Z,100.00
2023-04-16T19:21:25.776Z,100.00
2023-04-16T19:24:31.843Z,100.00
2023-04-16T19:27:37.672Z,100.00
2023-04-16T19:30:43.394Z,100.00
2023-04-16T19:33:47.865Z,100.00
2023-04-16T19:36:54.266Z,100.00
2023-04-16T19:39:59.664Z,100.00
2023-04-16T19:43:04.166Z,100.00
2023-04-16T19:46:08.910Z,100.00
2023-04-16T19:49:13.543Z,100.00
2023-04-16T19:52:18.167Z,100.00
2023-04-16T19:55:24.360Z,100.00
2023-04-16T19:58:28.825Z,100.00
2023-04-16T20:01:33.384Z,100.00
2023-04-16T20:04:38.404Z,100.00
2023-04-16T20:07:42.906Z,100.00
2023-04-16T20:10:47.393Z,100.00
2023-04-16T20:13:51.824Z,100.00
2023-04-16T20:16:58.338Z,100.00
2023-04-16T20:20:08.045Z,100.00
2023-04-16T20:23:13.166Z,100.00
2023-04-16T20:26:18.199Z,100.00
2023-04-16T20:29:22.732Z,100.00
2023-04-16T20:32:27.992Z,100.00
2023-04-16T20:35:33.981Z,100.00
2023-04-16T20:38:38.929Z,100.00
2023-04-16T20:41:44.123Z,100.00
2023-04-16T20:44:56.202Z,100.00
2023-04-16T20:48:00.818Z,100.00
2023-04-16T20:51:07.653Z,100.00
2023-04-16T20:54:12.207Z,100.00
2023-04-16T20:57:18.351Z,100.00
2023-04-16T21:00:22.998Z,100.00
2023-04-16T21:03:27.642Z,100.00
2023-04-16T21:06:33.936Z,100.00
2023-04-16T21:09:38.445Z,100.00
2023-04-16T21:12:42.947Z,100.00
2023-04-16T21:15:47.503Z,100.00
2023-04-16T21:18:53.233Z,100.00
2023-04-16T21:21:57.752Z,100.00
2023-04-16T21:25:02.592Z,100.00
2023-04-16T21:28:07.203Z,100.00
2023-04-16T21:31:11.766Z,100.00
2023-04-16T21:34:16.248Z,100.00
2023-04-16T21:37:20.764Z,100.00
2023-04-16T21:40:25.295Z,100.00
2023-04-16T21:43:32.717Z,100.00
2023-04-16T21:46:37.219Z,100.00
2023-04-16T21:49:42.295Z,100.00
2023-04-16T21:52:46.841Z,100.00
2023-04-16T21:55:51.624Z,100.00
2023-04-16T21:58:56.089Z,100.00
2023-04-16T22:02:00.963Z,100.00
2023-04-16T22:05:06.239Z,100.00
2023-04-16T22:08:23.177Z,100.00
2023-04-16T22:11:28.857Z,100.00
2023-04-16T22:14:36.798Z,100.00
2023-04-16T22:17:41.503Z,100.00
2023-04-16T22:20:47.198Z,100.00
2023-04-16T22:23:51.685Z,100.00
2023-04-16T22:26:56.929Z,100.00
2023-04-16T22:30:01.798Z,100.00
2023-04-16T22:33:06.430Z,100.00
2023-04-16T22:36:11.083Z,100.00
2023-04-16T22:39:17.227Z,100.00
2023-04-16T22:42:21.772Z,100.00
2023-04-16T22:45:27.215Z,100.00
2023-04-16T22:48:33.832Z,100.00
2023-04-16T22:51:38.405Z,100.00
2023-04-16T22:54:42.878Z,100.00
2023-04-16T22:57:47.623Z,100.00
2023-04-16T23:00:52.518Z,100.00
2023-04-16T23:03:57.156Z,100.00
2023-04-16T23:07:01.677Z,100.00
2023-04-16T23:10:08.245Z,100.00
2023-04-16T23:13:13.602Z,100.00
2023-04-16T23:16:18.135Z,100.00
2023-04-16T23:19:22.804Z,100.00
2023-04-16T23:22:27.987Z,100.00
2023-04-16T23:25:33.009Z,100.00
2023-04-16T23:28:38.422Z,100.00
2023-04-16T23:31:43.217Z,100.00
2023-04-16T23:34:48.450Z,100.00
2023-04-16T23:37:53.480Z,100.00
2023-04-16T23:40:58.092Z,100.00
2023-04-16T23:44:02.712Z,100.00
2023-04-16T23:47:07.246Z,100.00
2023-04-16T23:50:11.844Z,100.00
2023-04-16T23:53:18.287Z,100.00
2023-04-16T23:56:22.707Z,100.00
2023-04-16T23:59:27.276Z,100.00
